Wetterdaten: Woche 18.03.13 - 24.03.13 (KW12)
Datum Zeit Temp. A. Feuchte A. Luftdruck Regen Wind Richtung Taupunkt Windchill Windben
18.03.2013 00:00 0,6 C 71 % 1006,5 hPa 0,0 l/m 8,3 km/h N -4,1 C -1,2 C 22,1 km/h
18.03.2013 01:00 0,9 C 69 % 1005,9 hPa 0,0 l/m 8,7 km/h N -4,1 C -1,3 C 23,3 km/h
18.03.2013 02:00 0,4 C 72 % 1005,3 hPa 0,0 l/m 3,5 km/h N -4,1 C 0,4 C 14,5 km/h
18.03.2013 03:00 -0,1 C 74 % 1004,7 hPa 0,0 l/m 1,1 km/h N -4,2 C -0,1 C 7,2 km/h
18.03.2013 04:00 0,0 C 75 % 1004,2 hPa 0,0 l/m 3,2 km/h N -4,0 C 0,0 C 14,9 km/h
18.03.2013 05:00 -0,2 C 76 % 1004,0 hPa 0,0 l/m 2,4 km/h N -4,0 C -0,2 C 12,5 km/h
18.03.2013 06:00 0,2 C 76 % 1003,8 hPa 0,0 l/m 4,5 km/h N -3,5 C 0,2 C 15,7 km/h
18.03.2013 07:00 1,3 C 75 % 1003,3 hPa 0,0 l/m 1,9 km/h N -2,7 C 1,3 C 10,9 km/h
18.03.2013 08:00 3,3 C 67 % 1002,7 hPa 0,0 l/m 15,9 km/h N -2,2 C -3,3 C 31,0 km/h
18.03.2013 09:00 2,8 C 66 % 1002,7 hPa 0,0 l/m 13,8 km/h N -3,0 C -2,4 C 29,8 km/h
18.03.2013 10:00 2,3 C 71 % 1002,7 hPa 0,0 l/m 10,6 km/h N -2,4 C -1,2 C 28,5 km/h
18.03.2013 11:00 1,5 C 79 % 1002,3 hPa 0,0 l/m 10,9 km/h N -1,7 C -2,4 C 23,7 km/h
18.03.2013 12:00 1,1 C 84 % 1001,0 hPa 0,0 l/m 12,1 km/h N -1,4 C -3,7 C 29,8 km/h
18.03.2013 13:00 0,9 C 85 % 999,7 hPa 0,0 l/m 4,0 km/h N -1,4 C 0,9 C 18,5 km/h
18.03.2013 14:00 0,8 C 84 % 998,7 hPa 0,3 l/m 1,8 km/h N -1,6 C 0,8 C 9,7 km/h
18.03.2013 15:00 0,9 C 83 % 997,2 hPa 0,5 l/m 4,5 km/h N -1,7 C 0,8 C 17,7 km/h
18.03.2013 16:00 1,2 C 83 % 995,7 hPa 0,3 l/m 9,6 km/h N -1,5 C -1,7 C 22,1 km/h
18.03.2013 17:00 1,4 C 82 % 994,6 hPa 0,5 l/m 7,1 km/h N -1,4 C 0,5 C 19,7 km/h
18.03.2013 18:00 1,2 C 82 % 993,4 hPa 0,8 l/m 6,0 km/h N -1,5 C 0,6 C 17,3 km/h
18.03.2013 19:00 1,5 C 81 % 992,4 hPa 1,0 l/m 2,6 km/h N -1,4 C 1,5 C 10,1 km/h
18.03.2013 20:00 1,5 C 81 % 991,6 hPa 2,3 l/m 4,7 km/h N -1,5 C 1,1 C 13,7 km/h
18.03.2013 21:00 2,0 C 80 % 989,9 hPa 0,3 l/m 4,2 km/h N -1,1 C 1,3 C 13,7 km/h
18.03.2013 22:00 2,4 C 80 % 990,1 hPa 0,0 l/m 3,5 km/h N -0,6 C 2,4 C 12,9 km/h
18.03.2013 23:00 2,6 C 80 % 990,1 hPa 0,0 l/m 0,6 km/h N -0,5 C 2,6 C 4,0 km/h
19.03.2013 00:00 2,4 C 80 % 990,0 hPa 0,0 l/m 0,1 km/h N -0,7 C 2,4 C 1,2 km/h
19.03.2013 01:00 2,3 C 80 % 990,6 hPa 0,0 l/m 0,3 km/h N -0,8 C 2,3 C 4,0 km/h
19.03.2013 02:00 2,4 C 80 % 990,1 hPa 0,0 l/m 1,2 km/h N -0,7 C 2,4 C 4,0 km/h
19.03.2013 03:00 2,6 C 80 % 990,4 hPa 0,0 l/m 4,0 km/h N -0,6 C 2,6 C 14,9 km/h
19.03.2013 04:00 3,0 C 84 % 991,0 hPa 0,5 l/m 9,4 km/h N 0,6 C 0,5 C 28,6 km/h
19.03.2013 05:00 3,4 C 81 % 991,7 hPa 0,3 l/m 15,3 km/h N 0,4 C -3,0 C 40,2 km/h
19.03.2013 06:00 4,3 C 76 % 992,5 hPa 0,0 l/m 13,4 km/h N 0,4 C -0,8 C 35,8 km/h
19.03.2013 07:00 4,4 C 74 % 993,7 hPa 0,0 l/m 14,5 km/h N 0,2 C -1,3 C 36,6 km/h
19.03.2013 08:00 4,8 C 73 % 994,7 hPa 0,0 l/m 17,1 km/h N 0,4 C -2,1 C 35,4 km/h
19.03.2013 09:00 5,3 C 70 % 995,8 hPa 0,0 l/m 13,0 km/h N 0,4 C 0,8 C 35,8 km/h
19.03.2013 10:00 6,0 C 67 % 997,0 hPa 0,0 l/m 14,8 km/h N 0,3 C 0,6 C 35,8 km/h
19.03.2013 11:00 7,0 C 61 % 997,8 hPa 0,0 l/m 15,6 km/h N 0,0 C 1,3 C 35,8 km/h
19.03.2013 12:00 8,1 C 61 % 998,8 hPa 0,0 l/m 17,1 km/h N 0,9 C 1,9 C 36,6 km/h
19.03.2013 13:00 7,8 C 63 % 999,6 hPa 0,0 l/m 16,9 km/h N 1,2 C 1,6 C 37,4 km/h
19.03.2013 14:00 8,5 C 60 % 999,9 hPa 0,0 l/m 15,2 km/h N 1,2 C 3,3 C 35,8 km/h
19.03.2013 15:00 7,5 C 67 % 1000,8 hPa 0,5 l/m 13,6 km/h N 1,6 C 2,8 C 33,4 km/h
19.03.2013 16:00 5,8 C 75 % 1001,0 hPa 0,3 l/m 14,4 km/h N 1,7 C 0,4 C 34,6 km/h
19.03.2013 17:00 6,2 C 69 % 1001,3 hPa 0,0 l/m 13,3 km/h N 1,0 C 1,5 C 33,0 km/h
19.03.2013 18:00 5,9 C 68 % 1002,1 hPa 0,0 l/m 9,1 km/h N 0,3 C 3,7 C 27,8 km/h
19.03.2013 19:00 5,5 C 68 % 1002,8 hPa 0,0 l/m 4,5 km/h N 0,2 C 5,5 C 14,5 km/h
19.03.2013 20:00 5,3 C 68 % 1003,0 hPa 0,0 l/m 5,3 km/h N -0,0 C 4,6 C 16,1 km/h
19.03.2013 21:00 4,4 C 69 % 1003,6 hPa 0,0 l/m 0,4 km/h N -0,9 C 4,4 C 4,8 km/h
19.03.2013 22:00 1,8 C 76 % 1003,9 hPa 0,0 l/m 0,2 km/h N -2,0 C 1,8 C 3,2 km/h
19.03.2013 23:00 0,5 C 80 % 1004,2 hPa 0,0 l/m 0,0 km/h N -2,5 C 0,5 C 0,0 km/h
20.03.2013 00:00 0,6 C 83 % 1004,7 hPa 0,0 l/m 0,8 km/h N -2,0 C 0,6 C 4,8 km/h
20.03.2013 01:00 1,7 C 78 % 1005,0 hPa 0,0 l/m 1,0 km/h N -1,7 C 1,7 C 4,8 km/h
20.03.2013 02:00 1,1 C 76 % 1005,1 hPa 0,0 l/m 0,2 km/h N -2,8 C 1,1 C 2,4 km/h
20.03.2013 03:00 0,2 C 78 % 1005,3 hPa 0,0 l/m 0,4 km/h N -3,2 C 0,2 C 4,4 km/h
20.03.2013 04:00 -1,0 C 80 % 1005,5 hPa 0,0 l/m 0,1 km/h N -4,0 C -1,0 C 1,6 km/h
20.03.2013 05:00 -1,5 C 82 % 1005,9 hPa 0,0 l/m 0,0 km/h N -4,2 C -1,5 C 1,2 km/h
20.03.2013 06:00 -2,2 C 84 % 1006,1 hPa 0,0 l/m 0,0 km/h N -4,6 C -2,2 C 1,2 km/h
20.03.2013 07:00 -0,5 C 85 % 1006,3 hPa 0,0 l/m 0,1 km/h N -2,7 C -0,5 C 1,2 km/h
20.03.2013 08:00 4,1 C 77 % 1006,2 hPa 0,0 l/m 0,4 km/h N 0,3 C 4,1 C 3,2 km/h
20.03.2013 09:00 7,7 C 64 % 1006,0 hPa 0,0 l/m 0,9 km/h N 1,3 C 7,7 C 4,8 km/h
20.03.2013 10:00 10,3 C 52 % 1006,1 hPa 0,0 l/m 4,3 km/h N 0,8 C 10,3 C 12,9 km/h
20.03.2013 11:00 11,4 C 47 % 1006,1 hPa 0,0 l/m 4,5 km/h N 0,3 C 11,4 C 13,3 km/h
20.03.2013 12:00 12,1 C 45 % 1005,9 hPa 0,0 l/m 5,0 km/h N 0,6 C 12,1 C 17,7 km/h
20.03.2013 13:00 12,8 C 42 % 1005,3 hPa 0,0 l/m 4,9 km/h N 0,3 C 12,8 C 17,3 km/h
20.03.2013 14:00 13,2 C 41 % 1005,0 hPa 0,0 l/m 2,8 km/h N 0,2 C 13,2 C 11,7 km/h
20.03.2013 15:00 13,4 C 44 % 1004,7 hPa 0,0 l/m 1,5 km/h N 1,4 C 13,4 C 9,3 km/h
20.03.2013 16:00 12,9 C 50 % 1004,6 hPa 0,0 l/m 1,8 km/h N 2,7 C 12,9 C 9,6 km/h
20.03.2013 17:00 12,0 C 55 % 1004,8 hPa 0,0 l/m 0,3 km/h N 3,2 C 12,0 C 3,2 km/h
20.03.2013 18:00 10,5 C 60 % 1005,3 hPa 0,0 l/m 0,2 km/h N 3,1 C 10,5 C 4,0 km/h
20.03.2013 19:00 8,5 C 66 % 1005,7 hPa 0,0 l/m 0,1 km/h N 2,5 C 8,5 C 1,6 km/h
20.03.2013 20:00 6,7 C 72 % 1005,8 hPa 0,0 l/m 0,2 km/h N 2,1 C 6,7 C 2,4 km/h
20.03.2013 21:00 5,7 C 77 % 1006,0 hPa 0,0 l/m 0,1 km/h N 1,9 C 5,7 C 0,8 km/h
20.03.2013 22:00 5,2 C 79 % 1006,2 hPa 0,0 l/m 0,1 km/h N 1,8 C 5,2 C 0,8 km/h
20.03.2013 23:00 6,9 C 74 % 1006,9 hPa 0,0 l/m 5,8 km/h N 2,6 C 6,6 C 21,7 km/h
21.03.2013 00:00 7,8 C 69 % 1007,3 hPa 0,0 l/m 13,8 km/h N 2,4 C 3,2 C 31,8 km/h
21.03.2013 01:00 7,2 C 71 % 1008,0 hPa 0,0 l/m 14,7 km/h N 2,3 C 2,0 C 31,8 km/h
21.03.2013 02:00 6,3 C 74 % 1008,3 hPa 0,0 l/m 13,1 km/h N 2,0 C 1,7 C 30,2 km/h
21.03.2013 03:00 6,0 C 75 % 1008,5 hPa 0,0 l/m 14,8 km/h N 1,9 C 0,4 C 29,4 km/h
21.03.2013 04:00 6,3 C 74 % 1008,7 hPa 0,0 l/m 8,6 km/h N 1,9 C 4,6 C 22,1 km/h
21.03.2013 05:00 6,4 C 75 % 1008,9 hPa 0,0 l/m 10,0 km/h N 2,3 C 3,6 C 25,4 km/h
21.03.2013 06:00 6,4 C 74 % 1009,5 hPa 0,0 l/m 12,2 km/h N 2,1 C 2,3 C 27,4 km/h
21.03.2013 07:00 6,6 C 72 % 1010,0 hPa 0,0 l/m 15,2 km/h N 1,9 C 0,9 C 29,0 km/h
21.03.2013 08:00 6,8 C 71 % 1010,5 hPa 0,0 l/m 12,8 km/h N 1,8 C 2,4 C 29,4 km/h
21.03.2013 09:00 7,4 C 67 % 1010,7 hPa 0,0 l/m 14,7 km/h N 1,7 C 2,1 C 34,2 km/h
21.03.2013 10:00 7,8 C 64 % 1010,7 hPa 0,0 l/m 15,9 km/h N 1,3 C 2,1 C 33,0 km/h
21.03.2013 11:00 8,0 C 59 % 1010,7 hPa 0,0 l/m 18,7 km/h N 0,5 C 1,2 C 37,4 km/h
21.03.2013 12:00 6,8 C 61 % 1011,3 hPa 0,0 l/m 15,3 km/h N -0,1 C 1,2 C 32,6 km/h
21.03.2013 13:00 6,6 C 61 % 1011,5 hPa 0,0 l/m 18,2 km/h N -0,5 C -0,4 C 39,0 km/h
21.03.2013 14:00 6,8 C 59 % 1011,9 hPa 0,0 l/m 15,0 km/h N -0,8 C 1,2 C 31,4 km/h
21.03.2013 15:00 6,9 C 55 % 1012,2 hPa 0,0 l/m 18,6 km/h N -1,5 C -0,1 C 39,0 km/h
21.03.2013 16:00 6,5 C 55 % 1012,3 hPa 0,0 l/m 17,2 km/h N -1,9 C -0,1 C 35,8 km/h
21.03.2013 17:00 5,4 C 57 % 1012,8 hPa 0,0 l/m 16,4 km/h N -2,5 C -1,1 C 35,4 km/h
21.03.2013 18:00 4,4 C 59 % 1013,5 hPa 0,0 l/m 16,1 km/h N -3,0 C -2,2 C 37,0 km/h
21.03.2013 19:00 3,6 C 61 % 1014,3 hPa 0,0 l/m 15,3 km/h N -3,3 C -2,8 C 36,2 km/h
21.03.2013 20:00 3,2 C 59 % 1014,5 hPa 0,0 l/m 16,1 km/h N -4,0 C -3,7 C 39,4 km/h
21.03.2013 21:00 3,0 C 58 % 1014,8 hPa 0,0 l/m 18,5 km/h N -4,6 C -5,1 C 41,0 km/h
21.03.2013 22:00 2,8 C 56 % 1015,1 hPa 0,0 l/m 17,7 km/h N -5,1 C -5,0 C 38,6 km/h
21.03.2013 23:00 2,5 C 58 % 1015,2 hPa 0,0 l/m 17,7 km/h N -5,0 C -5,3 C 39,4 km/h
22.03.2013 00:00 2,2 C 60 % 1015,2 hPa 0,0 l/m 17,7 km/h N -4,7 C -5,7 C 38,6 km/h
22.03.2013 01:00 1,8 C 60 % 1015,5 hPa 0,0 l/m 16,1 km/h N -5,3 C -5,4 C 36,2 km/h
22.03.2013 02:00 1,1 C 60 % 1015,6 hPa 0,0 l/m 16,1 km/h N -5,8 C -6,2 C 34,6 km/h
22.03.2013 03:00 0,4 C 61 % 1015,5 hPa 0,0 l/m 13,7 km/h N -6,2 C -5,7 C 39,4 km/h
22.03.2013 04:00 0,3 C 61 % 1015,8 hPa 0,0 l/m 14,5 km/h N -6,4 C -6,4 C 32,2 km/h
22.03.2013 05:00 0,0 C 62 % 1015,8 hPa 0,0 l/m 12,9 km/h N -6,5 C -5,6 C 34,6 km/h
22.03.2013 06:00 -0,2 C 63 % 1016,2 hPa 0,0 l/m 11,3 km/h N -6,5 C -4,6 C 30,6 km/h
22.03.2013 07:00 0,4 C 62 % 1016,6 hPa 0,0 l/m 12,5 km/h N -6,0 C -4,9 C 27,9 km/h
22.03.2013 08:00 1,1 C 60 % 1016,5 hPa 0,0 l/m 15,1 km/h N -5,8 C -5,7 C 31,4 km/h
22.03.2013 09:00 1,9 C 56 % 1016,6 hPa 0,0 l/m 17,0 km/h N -6,0 C -5,8 C 35,8 km/h
22.03.2013 10:00 2,8 C 54 % 1016,4 hPa 0,0 l/m 15,9 km/h N -5,7 C -4,0 C 33,0 km/h
22.03.2013 11:00 3,3 C 53 % 1016,5 hPa 0,0 l/m 14,9 km/h N -5,4 C -2,9 C 32,2 km/h
22.03.2013 12:00 3,9 C 52 % 1016,4 hPa 0,0 l/m 14,8 km/h N -5,1 C -2,2 C 34,2 km/h
22.03.2013 13:00 3,8 C 52 % 1016,2 hPa 0,0 l/m 13,1 km/h N -5,3 C -1,3 C 29,4 km/h
22.03.2013 14:00 3,8 C 51 % 1016,1 hPa 0,0 l/m 13,0 km/h N -5,4 C -1,3 C 30,2 km/h
22.03.2013 15:00 3,3 C 52 % 1016,3 hPa 0,0 l/m 10,9 km/h N -5,6 C -0,5 C 24,1 km/h
22.03.2013 16:00 2,7 C 54 % 1016,6 hPa 0,0 l/m 9,3 km/h N -5,6 C 0,2 C 22,5 km/h
22.03.2013 17:00 2,0 C 55 % 1017,1 hPa 0,0 l/m 8,2 km/h N -6,1 C 0,4 C 22,1 km/h
22.03.2013 18:00 1,3 C 56 % 1017,5 hPa 0,0 l/m 7,3 km/h N -6,6 C 0,4 C 18,9 km/h
22.03.2013 19:00 0,5 C 59 % 1017,8 hPa 0,0 l/m 3,2 km/h N -6,7 C 0,5 C 10,9 km/h
22.03.2013 20:00 -0,5 C 63 % 1018,0 hPa 0,0 l/m 2,5 km/h N -6,7 C -0,5 C 8,4 km/h
22.03.2013 21:00 -0,6 C 66 % 1017,9 hPa 0,0 l/m 4,0 km/h N -6,1 C -0,6 C 10,9 km/h
22.03.2013 22:00 -1,1 C 69 % 1018,0 hPa 0,0 l/m 2,0 km/h N -6,1 C -1,1 C 7,2 km/h
22.03.2013 23:00 -1,6 C 71 % 1018,2 hPa 0,0 l/m 0,5 km/h N -6,2 C -1,6 C 4,0 km/h
23.03.2013 00:00 -0,9 C 70 % 1018,1 hPa 0,0 l/m 3,4 km/h N -5,7 C -0,9 C 12,5 km/h
23.03.2013 01:00 -0,8 C 68 % 1018,2 hPa 0,0 l/m 4,1 km/h N -6,0 C -0,8 C 13,3 km/h
23.03.2013 02:00 -1,1 C 69 % 1018,3 hPa 0,0 l/m 5,4 km/h N -6,2 C -1,1 C 16,5 km/h
23.03.2013 03:00 -1,7 C 69 % 1018,2 hPa 0,0 l/m 4,7 km/h N -6,6 C -1,7 C 14,1 km/h
23.03.2013 04:00 -2,0 C 70 % 1018,4 hPa 0,0 l/m 4,4 km/h N -6,8 C -2,0 C 14,1 km/h
23.03.2013 05:00 -2,3 C 70 % 1018,6 hPa 0,0 l/m 4,0 km/h N -7,0 C -2,3 C 13,7 km/h
23.03.2013 06:00 -2,5 C 72 % 1018,8 hPa 0,0 l/m 4,2 km/h N -6,9 C -2,5 C 12,1 km/h
23.03.2013 07:00 -3,0 C 71 % 1019,5 hPa 0,0 l/m 6,5 km/h N -7,6 C -3,3 C 18,9 km/h
23.03.2013 08:00 -3,1 C 69 % 1019,8 hPa 0,0 l/m 5,8 km/h N -8,0 C -3,1 C 14,9 km/h
23.03.2013 09:00 -2,7 C 68 % 1019,8 hPa 0,0 l/m 5,1 km/h N -7,9 C -2,7 C 14,1 km/h
23.03.2013 10:00 -2,3 C 67 % 1019,7 hPa 0,0 l/m 5,3 km/h N -7,6 C -2,3 C 17,7 km/h
23.03.2013 11:00 -1,2 C 64 % 1019,4 hPa 0,0 l/m 4,6 km/h N -7,1 C -1,2 C 16,1 km/h
23.03.2013 12:00 0,7 C 56 % 1018,8 hPa 0,0 l/m 4,3 km/h N -7,1 C 0,7 C 16,1 km/h
23.03.2013 13:00 2,1 C 54 % 1018,3 hPa 0,0 l/m 4,3 km/h N -6,3 C 2,1 C 15,3 km/h
23.03.2013 14:00 2,4 C 53 % 1017,9 hPa 0,0 l/m 4,5 km/h N -6,2 C 2,4 C 14,1 km/h
23.03.2013 15:00 2,5 C 52 % 1017,6 hPa 0,0 l/m 4,7 km/h N -6,3 C 2,5 C 13,3 km/h
23.03.2013 16:00 2,4 C 53 % 1017,7 hPa 0,0 l/m 4,8 km/h N -6,3 C 2,4 C 15,7 km/h
23.03.2013 17:00 1,7 C 54 % 1018,0 hPa 0,0 l/m 4,2 km/h N -6,5 C 1,7 C 12,1 km/h
23.03.2013 18:00 0,7 C 56 % 1018,6 hPa 0,0 l/m 5,3 km/h N -7,1 C 0,7 C 15,7 km/h
23.03.2013 19:00 -0,4 C 55 % 1019,7 hPa 0,0 l/m 5,9 km/h N -8,3 C -0,4 C 18,1 km/h
23.03.2013 20:00 -1,4 C 55 % 1020,3 hPa 0,0 l/m 6,4 km/h N -9,2 C -1,6 C 18,1 km/h
23.03.2013 21:00 -2,0 C 54 % 1020,5 hPa 0,0 l/m 4,4 km/h N -10,0 C -2,0 C 16,5 km/h
23.03.2013 22:00 -2,5 C 51 % 1020,6 hPa 0,0 l/m 4,4 km/h N -11,1 C -2,5 C 11,7 km/h
23.03.2013 23:00 -2,9 C 51 % 1020,7 hPa 0,0 l/m 4,0 km/h N -11,5 C -2,9 C 13,7 km/h
24.03.2013 00:00 -3,4 C 52 % 1020,8 hPa 0,0 l/m 4,7 km/h N -11,8 C -3,4 C 15,3 km/h
24.03.2013 01:00 -4,0 C 55 % 1020,5 hPa 0,0 l/m 3,9 km/h N -11,7 C -4,0 C 14,9 km/h
24.03.2013 02:00 -4,6 C 56 % 1020,5 hPa 0,0 l/m 3,6 km/h N -12,0 C -4,6 C 12,1 km/h
24.03.2013 03:00 -5,2 C 56 % 1020,4 hPa 0,0 l/m 4,2 km/h N -12,6 C -5,2 C 12,9 km/h
24.03.2013 04:00 -5,6 C 58 % 1020,5 hPa 0,0 l/m 3,2 km/h N -12,6 C -5,6 C 10,5 km/h
24.03.2013 05:00 -6,1 C 61 % 1020,7 hPa 0,0 l/m 3,0 km/h N -12,3 C -6,1 C 8,9 km/h
24.03.2013 06:00 -6,6 C 66 % 1021,0 hPa 0,0 l/m 2,2 km/h N -11,8 C -6,6 C 7,6 km/h
24.03.2013 07:00 -6,6 C 71 % 1021,4 hPa 0,0 l/m 1,0 km/h N -11,0 C -6,6 C 6,0 km/h
24.03.2013 08:00 -6,3 C 70 % 1021,5 hPa 0,0 l/m 0,5 km/h N -10,8 C -6,3 C 5,6 km/h
24.03.2013 09:00 -5,9 C 73 % 1021,6 hPa 0,0 l/m 0,3 km/h N -10,0 C -5,9 C 3,2 km/h
24.03.2013 10:00 -5,7 C 74 % 1021,6 hPa 0,0 l/m 0,4 km/h N -9,6 C -5,7 C 4,0 km/h
24.03.2013 11:00 -5,1 C 75 % 1021,2 hPa 0,0 l/m 0,9 km/h N -8,8 C -5,1 C 5,6 km/h
24.03.2013 12:00 -4,6 C 77 % 1020,8 hPa 0,0 l/m 1,0 km/h N -8,0 C -4,6 C 6,4 km/h
24.03.2013 13:00 -3,8 C 80 % 1020,2 hPa 0,0 l/m 1,3 km/h N -6,8 C -3,8 C 8,1 km/h
24.03.2013 14:00 -2,9 C 82 % 1019,8 hPa 0,0 l/m 2,7 km/h N -5,5 C -2,9 C 13,3 km/h
24.03.2013 15:00 -2,7 C 82 % 1019,6 hPa 0,0 l/m 4,0 km/h N -5,4 C -2,7 C 16,5 km/h
24.03.2013 16:00 -2,6 C 80 % 1019,4 hPa 0,0 l/m 4,7 km/h N -5,6 C -2,6 C 14,9 km/h
24.03.2013 17:00 -2,8 C 79 % 1019,4 hPa 0,0 l/m 2,5 km/h N -5,9 C -2,8 C 12,5 km/h
24.03.2013 18:00 -2,9 C 78 % 1019,5 hPa 0,0 l/m 3,0 km/h N -6,2 C -2,9 C 11,3 km/h
24.03.2013 19:00 -2,8 C 78 % 1019,7 hPa 0,0 l/m 2,9 km/h N -6,1 C -2,8 C 10,1 km/h
24.03.2013 20:00 -2,8 C 76 % 1019,8 hPa 0,0 l/m 5,7 km/h N -6,4 C -3,0 C 15,3 km/h
24.03.2013 21:00 -2,8 C 76 % 1019,9 hPa 0,0 l/m 4,8 km/h N -6,4 C -3,2 C 14,9 km/h
24.03.2013 22:00 -3,6 C 82 % 1019,8 hPa 0,0 l/m 4,7 km/h N -6,2 C -3,6 C 14,9 km/h
24.03.2013 23:00 -3,9 C 85 % 1019,2 hPa 0,0 l/m 5,0 km/h N -6,1 C -4,0 C 13,7 km/h
Min-Datum _ 24.03.13 20.03.13 18.03.13 - 18.03.13 - 24.03.13 22.03.13 19.03.13
_ Min-Zeit 07:15 14:30 21:45 - 23:45 - 04:00 02:30 00:00
Minimum _ -6,7 C 39 % 989,1 hPa - 0,0 km/h - -12,8 C -7,4 C 0,0 km/h
Max-Datum _ 20.03.13 18.03.13 24.03.13 18.03.13 19.03.13 - 20.03.13 20.03.13 19.03.13
_ Max-Zeit 15:00 13:00 09:15 20:00 12:00 - 17:45 15:00 09:00
Maximum _ 13,6 C 85 % 1021,7 hPa 2,3 l/m 22,1 km/h
N
- 3,4 C 13,6 C 49,9 km/h
N
Durchschnitt _ 2,1 C 67 % 1009,9 hPa #7,5 l/m 7,3 km/h N -3,5 C -0,0 C 19,1 km/h